Time;durP1;ratioP1;P1;durP2;ratioP2;P2;SDS_P1;SDS_P2;PMS_P1;PMS_P2;Temp;Humidity;BMP_temperature;BMP_pressure;BME280_temperature;BME280_humidity;BME280_pressure;Samples;Min_cycle;Max_cycle;Signal;HPM_P1;HPM_P2
2020/12/29 00:01:38;;;;;;;18.90;7.80;;;;;;;2.81;100.00;97417.41;5036293;28;20750;-66
2020/12/29 00:04:05;;;;;;;18.53;8.40;;;;;;;2.81;100.00;97409.69;5022764;28;20280;-66
2020/12/29 00:06:30;;;;;;;21.50;8.60;;;;;;;2.80;100.00;97415.72;5027288;28;20308;-66
2020/12/29 00:08:56;;;;;;;20.63;9.13;;;;;;;2.79;100.00;97414.03;5027524;28;20282;-66
2020/12/29 00:11:22;;;;;;;19.43;8.60;;;;;;;2.77;100.00;97416.59;5023901;28;20021;-65
2020/12/29 00:13:47;;;;;;;26.43;9.33;;;;;;;2.76;100.00;97406.31;5024009;28;20826;-66
2020/12/29 00:16:13;;;;;;;23.10;9.20;;;;;;;2.80;100.00;97407.97;5024001;28;20045;-66
2020/12/29 00:18:38;;;;;;;21.43;9.07;;;;;;;2.82;100.00;97409.63;5023191;28;20080;-66
2020/12/29 00:21:04;;;;;;;23.70;9.77;;;;;;;2.83;100.00;97405.31;5019389;28;20121;-65
2020/12/29 00:23:31;;;;;;;23.60;9.87;;;;;;;2.81;100.00;97407.09;5019219;28;20057;-65
2020/12/29 00:25:57;;;;;;;23.07;9.77;;;;;;;2.78;100.00;97402.81;5019485;28;20038;-65
2020/12/29 00:28:22;;;;;;;27.40;10.37;;;;;;;2.78;100.00;97402.81;5017690;28;20333;-66
2020/12/29 00:30:48;;;;;;;23.33;9.80;;;;;;;2.78;100.00;97407.13;5040475;28;20032;-65
2020/12/29 00:33:14;;;;;;;25.27;9.70;;;;;;;2.78;100.00;97402.81;5022682;28;20064;-65
2020/12/29 00:35:39;;;;;;;26.40;9.97;;;;;;;2.78;100.00;97405.41;5026944;28;20057;-65
2020/12/29 00:38:05;;;;;;;23.80;9.87;;;;;;;2.77;100.00;97406.28;5028142;28;20353;-65
2020/12/29 00:40:30;;;;;;;24.87;10.30;;;;;;;2.78;100.00;97407.13;5031966;28;20041;-66
2020/12/29 00:42:56;;;;;;;29.13;11.17;;;;;;;2.79;100.00;97404.56;5030083;28;20037;-66
2020/12/29 00:45:21;;;;;;;25.73;10.37;;;;;;;2.78;100.00;97402.81;5030643;28;20025;-66
2020/12/29 00:47:47;;;;;;;27.70;10.63;;;;;;;2.77;100.00;97408.03;5020267;28;20527;-65
2020/12/29 00:50:12;;;;;;;24.70;10.03;;;;;;;2.77;100.00;97405.44;5011614;28;20112;-65
2020/12/29 00:52:37;;;;;;;31.57;11.17;;;;;;;2.78;100.00;97407.97;5032377;28;20492;-65
2020/12/29 00:55:03;;;;;;;25.57;10.37;;;;;;;2.78;100.00;97402.81;5021031;28;20115;-66
2020/12/29 00:57:28;;;;;;;29.37;10.50;;;;;;;2.79;100.00;97398.53;5029944;28;20047;-65
2020/12/29 00:59:54;;;;;;;28.63;11.47;;;;;;;2.77;100.00;97397.69;5037412;28;20440;-66
2020/12/29 01:02:19;;;;;;;23.40;9.70;;;;;;;2.77;100.00;97390.81;5025338;28;20360;-66
2020/12/29 01:04:44;;;;;;;30.43;10.50;;;;;;;2.76;100.00;97394.28;5033531;28;20037;-65
2020/12/29 01:07:10;;;;;;;25.60;11.03;;;;;;;2.74;100.00;97390.88;5036964;28;20028;-66
2020/12/29 01:09:35;;;;;;;30.30;11.63;;;;;;;2.73;100.00;97388.34;5023451;28;20038;-65
2020/12/29 01:12:01;;;;;;;25.67;10.47;;;;;;;2.71;100.00;97385.81;5026382;28;20116;-65
2020/12/29 01:14:26;;;;;;;26.10;10.53;;;;;;;2.68;100.00;97385.88;5025627;28;20037;-65
2020/12/29 01:16:51;;;;;;;32.23;11.13;;;;;;;2.69;100.00;97382.41;5016589;28;20083;-65
2020/12/29 01:19:17;;;;;;;28.63;11.80;;;;;;;2.69;100.00;97395.31;5023046;28;20029;-65
2020/12/29 01:21:42;;;;;;;27.90;11.87;;;;;;;2.70;100.00;97393.56;5031961;28;20432;-65
2020/12/29 01:24:08;;;;;;;27.90;10.70;;;;;;;2.72;100.00;97395.22;5026777;28;20061;-66
2020/12/29 01:26:33;;;;;;;25.77;10.33;;;;;;;2.72;100.00;97397.81;5014131;28;20109;-65
2020/12/29 01:28:59;;;;;;;24.63;10.40;;;;;;;2.72;100.00;97396.97;5020391;28;20033;-65
2020/12/29 01:31:25;;;;;;;31.80;11.10;;;;;;;2.72;100.00;97399.53;5028703;28;20029;-64
2020/12/29 01:33:51;;;;;;;27.30;10.90;;;;;;;2.74;100.00;97406.34;5031321;28;20469;-65
2020/12/29 01:36:16;;;;;;;30.80;11.13;;;;;;;2.75;100.00;97402.06;5029788;28;20288;-65
2020/12/29 01:38:42;;;;;;;32.80;12.27;;;;;;;2.76;100.00;97409.75;5030818;28;20021;-66
2020/12/29 01:41:07;;;;;;;29.57;11.40;;;;;;;2.77;100.00;97410.59;5023761;28;20029;-65
2020/12/29 01:43:32;;;;;;;30.60;11.17;;;;;;;2.75;100.00;97408.06;5020524;28;20096;-65
2020/12/29 01:45:58;;;;;;;30.40;11.27;;;;;;;2.76;100.00;97403.75;5024488;28;20039;-65
2020/12/29 01:48:25;;;;;;;31.20;12.13;;;;;;;2.75;100.00;97402.91;5021413;28;20048;-65
2020/12/29 01:50:51;;;;;;;27.33;11.07;;;;;;;2.72;100.00;97397.81;5022478;28;20040;-65
2020/12/29 01:53:16;;;;;;;29.27;11.90;;;;;;;2.70;100.00;97399.56;5024672;28;20288;-65
2020/12/29 01:55:42;;;;;;;31.87;11.07;;;;;;;2.70;100.00;97394.41;5022782;28;20045;-65
2020/12/29 01:58:07;;;;;;;29.77;10.40;;;;;;;2.68;100.00;97396.19;5026386;28;20080;-65
2020/12/29 02:00:33;;;;;;;28.40;10.63;;;;;;;2.68;100.00;97391.03;5022887;28;20500;-65
2020/12/29 02:02:58;;;;;;;28.80;11.53;;;;;;;2.68;100.00;97388.44;5023211;28;20083;-65
2020/12/29 02:05:26;;;;;;;37.63;11.70;;;;;;;2.67;100.00;97394.50;5025756;28;20076;-65
2020/12/29 02:07:52;;;;;;;32.23;10.83;;;;;;;2.69;100.00;97403.03;5029462;28;20052;-65
2020/12/29 02:10:18;;;;;;;26.83;10.67;;;;;;;2.67;100.00;97397.06;5026499;28;20288;-65
2020/12/29 02:12:44;;;;;;;29.83;11.27;;;;;;;2.65;100.00;97398.81;5022418;28;20764;-65
2020/12/29 02:15:09;;;;;;;31.33;11.13;;;;;;;2.64;100.00;97394.53;5022505;28;20104;-65
2020/12/29 02:17:35;;;;;;;31.63;12.00;;;;;;;2.62;100.00;97407.47;5022040;28;20041;-65
2020/12/29 02:20:02;;;;;;;32.00;11.73;;;;;;;2.67;100.00;97404.81;5019945;28;20025;-66
2020/12/29 02:22:27;;;;;;;30.97;10.87;;;;;;;2.67;100.00;97403.97;5025380;28;20292;-65
2020/12/29 02:24:55;;;;;;;35.97;12.10;;;;;;;2.66;100.00;97408.25;5023403;28;20366;-65
2020/12/29 02:27:23;;;;;;;31.20;11.30;;;;;;;2.67;100.00;97409.97;5029682;28;20396;-66
2020/12/29 02:29:48;;;;;;;32.53;12.53;;;;;;;2.66;100.00;97421.13;5025797;28;20751;-65
2020/12/29 02:32:15;;;;;;;32.63;12.30;;;;;;;2.65;100.00;97430.59;5026276;28;20299;-65
2020/12/29 02:34:41;;;;;;;35.10;11.73;;;;;;;2.66;100.00;97434.03;5026475;28;20037;-65
2020/12/29 02:37:07;;;;;;;34.20;11.33;;;;;;;2.67;100.00;97432.31;5023649;28;20693;-65
2020/12/29 02:39:34;;;;;;;32.00;12.17;;;;;;;2.69;100.00;97440.88;5029676;28;20349;-65
2020/12/29 02:42:00;;;;;;;32.73;11.70;;;;;;;2.70;100.00;97442.56;5025017;28;20374;-65
2020/12/29 02:44:25;;;;;;;34.53;12.03;;;;;;;2.67;100.00;97440.91;5026276;28;20394;-65
2020/12/29 02:46:51;;;;;;;29.17;10.53;;;;;;;2.66;100.00;97441.75;5027198;28;20045;-65
2020/12/29 02:49:17;;;;;;;29.27;11.10;;;;;;;2.65;100.00;97442.66;5026126;28;20040;-65
2020/12/29 02:51:43;;;;;;;32.27;11.50;;;;;;;2.64;100.00;97440.94;5026414;28;20104;-64
2020/12/29 02:54:15;;;;;;;32.63;11.10;;;;;;;2.65;100.00;97440.06;5024448;28;20280;-65
2020/12/29 02:56:42;;;;;;;31.92;11.40;;;;;;;2.64;100.00;97440.94;5027346;28;20294;-65
2020/12/29 02:59:08;;;;;;;31.40;11.50;;;;;;;2.60;100.00;97444.47;5022075;28;20034;-65
2020/12/29 03:01:33;;;;;;;30.77;11.17;;;;;;;2.57;100.00;97447.97;5020131;28;20883;-66
2020/12/29 03:03:59;;;;;;;28.23;10.00;;;;;;;2.54;100.00;97449.75;5026173;28;20347;-65
2020/12/29 03:06:24;;;;;;;31.07;10.83;;;;;;;2.55;100.00;97461.78;5025039;28;20081;-65
2020/12/29 03:08:50;;;;;;;32.57;11.57;;;;;;;2.55;100.00;97456.63;5022633;28;20032;-65
2020/12/29 03:11:26;;;;;;;31.00;11.13;;;;;;;2.55;100.00;97459.22;5023399;28;20047;-65
2020/12/29 03:13:53;;;;;;;35.03;11.43;;;;;;;2.54;100.00;97460.06;5026534;28;20108;-65
2020/12/29 03:16:19;;;;;;;33.90;11.13;;;;;;;2.54;100.00;97465.22;5027769;28;20314;-65
2020/12/29 03:18:44;;;;;;;33.10;11.80;;;;;;;2.53;100.00;97468.66;5025190;28;20308;-65
2020/12/29 03:21:10;;;;;;;27.27;10.83;;;;;;;2.50;100.00;97468.75;5024838;28;20030;-65
2020/12/29 03:23:35;;;;;;;33.83;11.10;;;;;;;2.47;100.00;97469.66;5027868;28;20063;-66
2020/12/29 03:26:01;;;;;;;38.93;12.67;;;;;;;2.47;100.00;97481.69;5026293;28;20112;-65
2020/12/29 03:28:26;;;;;;;32.07;10.90;;;;;;;2.46;100.00;97472.25;5025365;28;20117;-65
2020/12/29 03:30:51;;;;;;;32.43;11.37;;;;;;;2.45;100.00;97475.72;5023792;28;20056;-66
2020/12/29 03:33:17;;;;;;;31.60;11.33;;;;;;;2.43;100.00;97474.91;5027653;28;20049;-65
2020/12/29 03:35:42;;;;;;;30.30;10.37;;;;;;;2.42;100.00;97481.75;5026120;28;20037;-65
2020/12/29 03:38:08;;;;;;;32.53;11.20;;;;;;;2.41;100.00;97480.06;5024119;28;20040;-65
2020/12/29 03:40:33;;;;;;;32.67;11.57;;;;;;;2.38;100.00;97479.28;5026089;28;20052;-65
2020/12/29 03:42:59;;;;;;;32.53;11.83;;;;;;;2.33;100.00;97487.09;5023472;28;20033;-66
2020/12/29 03:45:24;;;;;;;28.87;10.80;;;;;;;2.26;100.00;97495.81;5024863;28;20025;-65
2020/12/29 03:47:49;;;;;;;27.50;10.93;;;;;;;2.16;100.00;97500.25;5026566;28;20112;-65
2020/12/29 03:50:15;;;;;;;27.03;10.50;;;;;;;2.08;100.00;97499.56;5026261;28;20440;-65
2020/12/29 03:52:40;;;;;;;32.93;11.73;;;;;;;2.07;100.00;97507.31;5024759;28;20037;-64
2020/12/29 03:55:06;;;;;;;27.03;10.13;;;;;;;2.07;100.00;97500.44;5026038;28;20404;-65
2020/12/29 03:57:31;;;;;;;32.83;11.67;;;;;;;2.08;100.00;97502.13;5025389;28;20044;-65
2020/12/29 03:59:56;;;;;;;35.57;12.27;;;;;;;2.09;100.00;97509.00;5023602;28;20032;-64
2020/12/29 04:02:22;;;;;;;31.80;10.53;;;;;;;2.11;100.00;97501.22;5023561;28;20423;-65
2020/12/29 04:04:47;;;;;;;34.33;11.20;;;;;;;2.11;100.00;97496.94;5027786;28;20025;-64
2020/12/29 04:07:13;;;;;;;34.17;11.33;;;;;;;2.08;100.00;97491.84;5025037;28;20512;-65
2020/12/29 04:09:38;;;;;;;32.10;11.57;;;;;;;2.00;100.00;97489.38;5023287;28;20036;-65
2020/12/29 04:12:04;;;;;;;35.07;11.43;;;;;;;1.94;100.00;97491.19;5025314;28;20030;-65
2020/12/29 04:14:29;;;;;;;35.67;10.70;;;;;;;1.87;100.00;97502.47;5025425;28;20033;-65
2020/12/29 04:16:55;;;;;;;35.40;10.93;;;;;;;1.80;100.00;97501.72;5022633;28;20056;-65
2020/12/29 04:19:21;;;;;;;33.10;11.67;;;;;;;1.75;100.00;97506.94;5026391;28;20024;-65
2020/12/29 04:21:46;;;;;;;34.97;11.70;;;;;;;1.80;100.00;97504.28;5027666;28;20288;-65
2020/12/29 04:24:11;;;;;;;33.93;12.13;;;;;;;1.84;100.00;97502.53;5023398;28;20034;-65
2020/12/29 04:26:37;;;;;;;35.00;12.07;;;;;;;1.80;100.00;97501.72;5029042;28;20043;-65
2020/12/29 04:29:02;;;;;;;32.90;11.60;;;;;;;1.82;100.00;97499.09;5025953;28;20100;-65
2020/12/29 04:31:28;;;;;;;38.60;11.10;;;;;;;1.87;100.00;97502.47;5029499;28;20496;-65
2020/12/29 04:33:53;;;;;;;33.80;10.73;;;;;;;1.94;100.00;97511.78;5029651;28;20043;-65
2020/12/29 04:36:19;;;;;;;35.30;11.30;;;;;;;1.91;100.00;97509.28;5028789;28;20545;-65
2020/12/29 04:38:44;;;;;;;35.53;12.17;;;;;;;1.90;100.00;97523.03;5029543;28;20039;-65
2020/12/29 04:41:10;;;;;;;36.90;12.10;;;;;;;1.91;100.00;97512.69;5028305;28;20041;-65
2020/12/29 04:43:35;;;;;;;33.67;11.90;;;;;;;1.97;100.00;97524.66;5030825;28;20068;-65
2020/12/29 04:46:03;;;;;;;43.77;12.67;;;;;;;1.99;100.00;97525.47;5021835;28;20030;-65
2020/12/29 04:48:29;;;;;;;43.03;13.07;;;;;;;1.98;100.00;97523.78;5028133;28;20021;-65
2020/12/29 04:51:05;;;;;;;37.27;12.77;;;;;;;1.96;100.00;97522.94;5028085;28;20287;-66
2020/12/29 04:53:33;;;;;;;33.50;12.50;;;;;;;1.95;100.00;97516.09;5027151;28;20315;-65
2020/12/29 04:56:06;;;;;;;36.83;11.93;;;;;;;1.92;100.00;97521.28;5028844;28;20287;-65
2020/12/29 04:58:33;;;;;;;34.87;12.63;;;;;;;1.94;100.00;97519.53;5025028;28;20659;-65
2020/12/29 05:01:04;;;;;;;32.27;11.60;;;;;;;1.95;100.00;97526.41;5026419;28;20292;-66
2020/12/29 05:03:43;;;;;;;29.67;11.83;;;;;;;1.96;100.00;97517.81;5027358;28;20276;-65
2020/12/29 05:06:09;;;;;;;34.23;12.20;;;;;;;1.96;100.00;97528.09;5027736;28;20286;-65
2020/12/29 05:08:35;;;;;;;39.50;12.00;;;;;;;1.93;100.00;97517.81;5024758;28;20298;-65
2020/12/29 05:11:00;;;;;;;33.43;12.87;;;;;;;1.91;100.00;97530.72;5028489;28;20714;-65
2020/12/29 05:13:26;;;;;;;39.47;12.30;;;;;;;1.90;100.00;97541.06;5027236;28;20457;-66
2020/12/29 05:15:51;;;;;;;37.70;12.83;;;;;;;1.87;100.00;97525.66;5029725;28;20021;-65
2020/12/29 05:18:16;;;;;;;36.90;12.20;;;;;;;1.88;100.00;97529.94;5024378;28;20048;-65
2020/12/29 05:20:43;;;;;;;27.37;11.07;;;;;;;1.86;100.00;97531.69;5026059;28;20049;-65
2020/12/29 05:23:09;;;;;;;35.17;11.73;;;;;;;1.83;100.00;97526.59;5021882;28;20119;-65
2020/12/29 05:25:34;;;;;;;28.17;11.70;;;;;;;1.83;100.00;97521.44;5026322;28;20316;-65
2020/12/29 05:27:59;;;;;;;33.10;11.33;;;;;;;1.86;100.00;97523.97;5026105;28;20037;-65
2020/12/29 05:30:25;;;;;;;33.60;11.23;;;;;;;1.86;100.00;97526.53;5026863;28;20030;-65
2020/12/29 05:32:50;;;;;;;31.67;11.17;;;;;;;1.84;100.00;97536.88;5030159;28;20480;-64
2020/12/29 05:35:16;;;;;;;35.70;10.83;;;;;;;1.82;100.00;97535.16;5028902;28;20057;-65
2020/12/29 05:37:42;;;;;;;36.00;10.93;;;;;;;1.83;100.00;97542.06;5030319;28;20033;-64
2020/12/29 05:40:28;;;;;;;33.07;11.70;;;;;;;1.85;100.00;97540.28;5025936;28;20104;-64
2020/12/29 05:42:55;;;;;;;27.10;10.27;;;;;;;1.85;100.00;97540.28;5029290;28;20280;-64
2020/12/29 05:45:24;;;;;;;32.77;11.07;;;;;;;1.85;100.00;97545.44;5029401;28;20284;-65
2020/12/29 05:47:55;;;;;;;28.53;10.57;;;;;;;1.84;100.00;97543.75;5024503;28;21585;-65
2020/12/29 05:50:22;;;;;;;31.27;11.27;;;;;;;1.81;100.00;97546.34;5025472;28;20287;-65
2020/12/29 05:52:52;;;;;;;32.27;11.53;;;;;;;1.85;100.00;97546.31;5029584;28;20334;-65
2020/12/29 05:55:19;;;;;;;32.43;11.33;;;;;;;1.88;100.00;97550.53;5026761;28;20319;-65
2020/12/29 05:57:57;;;;;;;32.87;11.60;;;;;;;1.91;100.00;97558.22;5025524;28;20296;-65
2020/12/29 06:00:26;;;;;;;30.03;10.63;;;;;;;1.94;100.00;97553.91;5024430;28;20343;-64
2020/12/29 06:02:54;;;;;;;34.07;11.57;;;;;;;1.96;100.00;97549.56;5030037;28;20838;-65
2020/12/29 06:05:22;;;;;;;30.17;10.27;;;;;;;2.00;100.00;97556.38;5021505;28;20697;-65
2020/12/29 06:07:52;;;;;;;33.40;11.93;;;;;;;2.00;100.00;97555.50;5028116;28;20790;-65
2020/12/29 06:10:17;;;;;;;30.67;10.97;;;;;;;2.00;100.00;97560.66;5023724;28;20292;-65
2020/12/29 06:12:51;;;;;;;27.53;11.20;;;;;;;2.01;100.00;97567.50;5029512;28;20283;-65
2020/12/29 06:15:30;;;;;;;28.77;11.07;;;;;;;1.98;100.00;97558.13;5024903;28;20030;-65
2020/12/29 06:18:03;;;;;;;28.07;11.77;;;;;;;2.00;100.00;97563.25;5028775;28;20277;-65
2020/12/29 06:20:33;;;;;;;27.70;10.70;;;;;;;1.99;100.00;97564.13;5027291;28;20286;-65
2020/12/29 06:23:01;;;;;;;25.77;11.37;;;;;;;1.94;100.00;97561.63;5025331;28;20926;-65
2020/12/29 06:25:31;;;;;;;30.67;11.57;;;;;;;1.98;100.00;97572.72;5024050;28;20320;-65
2020/12/29 06:27:59;;;;;;;28.33;10.83;;;;;;;1.99;100.00;97574.41;5023799;28;20330;-65
2020/12/29 06:30:25;;;;;;;27.33;11.37;;;;;;;1.99;100.00;97580.41;5023272;28;20281;-66
2020/12/29 06:32:53;;;;;;;30.17;11.47;;;;;;;2.03;100.00;97588.94;5024318;28;20838;-66
2020/12/29 06:35:19;;;;;;;27.13;10.67;;;;;;;2.04;100.00;97599.22;5026428;28;20037;-65
2020/12/29 06:37:50;;;;;;;28.87;11.90;;;;;;;2.08;100.00;97594.91;5028162;28;20268;-65
2020/12/29 06:40:19;;;;;;;28.33;11.67;;;;;;;2.04;100.00;97606.09;5023810;28;20021;-65
2020/12/29 06:42:44;;;;;;;30.07;10.90;;;;;;;1.96;100.00;97606.25;5022027;28;20347;-65
2020/12/29 06:45:12;;;;;;;25.73;11.43;;;;;;;1.94;100.00;97615.72;5022525;28;20670;-65
2020/12/29 06:47:39;;;;;;;29.80;11.37;;;;;;;1.92;100.00;97614.88;5023272;28;20040;-66
2020/12/29 06:50:28;;;;;;;27.57;11.43;;;;;;;1.89;100.00;97609.75;5027963;28;20271;-65
2020/12/29 06:52:58;;;;;;;25.07;10.60;;;;;;;1.91;100.00;97614.88;5022176;28;20318;-65
2020/12/29 06:55:47;;;;;;;26.67;11.40;;;;;;;1.90;100.00;97620.91;5027952;28;20278;-65
2020/12/29 06:58:30;;;;;;;23.00;9.57;;;;;;;1.91;100.00;97614.88;5025646;28;20300;-66
2020/12/29 07:01:17;;;;;;;24.48;9.93;;;;;;;1.92;100.00;97616.59;5020964;28;20291;-65
2020/12/29 07:03:42;;;;;;;23.70;9.23;;;;;;;1.91;100.00;97617.47;5023363;28;20026;-65
2020/12/29 07:06:08;;;;;;;25.53;10.90;;;;;;;1.93;100.00;97620.88;5025928;28;20762;-65
2020/12/29 07:08:37;;;;;;;26.13;9.70;;;;;;;2.00;100.00;97630.22;5024228;28;20014;-65
2020/12/29 07:11:18;;;;;;;25.23;10.87;;;;;;;2.02;100.00;97631.06;5025612;28;20025;-65
2020/12/29 07:13:51;;;;;;;24.02;9.85;;;;;;;1.99;100.00;97641.41;5026854;28;20283;-65
2020/12/29 07:16:24;;;;;;;23.90;9.87;;;;;;;2.05;100.00;97641.31;5025088;28;20681;-65
2020/12/29 07:18:50;;;;;;;22.80;10.17;;;;;;;2.06;100.00;97645.63;5024245;28;20363;-65
2020/12/29 07:21:27;;;;;;;21.33;9.73;;;;;;;2.04;100.00;97644.75;5025549;28;20767;-65
2020/12/29 07:23:53;;;;;;;25.33;10.57;;;;;;;2.05;100.00;97667.06;5025683;28;20311;-65
2020/12/29 07:26:21;;;;;;;23.27;10.30;;;;;;;2.05;100.00;97674.81;5023089;28;20323;-64
2020/12/29 07:28:51;;;;;;;25.67;10.20;;;;;;;2.04;100.00;97670.53;5028077;28;20304;-65
2020/12/29 07:31:16;;;;;;;23.23;10.80;;;;;;;2.08;100.00;97674.78;5024832;28;20379;-65
2020/12/29 07:33:53;;;;;;;21.53;10.57;;;;;;;2.14;100.00;97681.56;5022981;28;20366;-65
2020/12/29 07:36:19;;;;;;;21.47;9.40;;;;;;;2.17;100.00;97682.34;5022797;28;20108;-65
2020/12/29 07:38:50;;;;;;;22.87;9.77;;;;;;;2.23;100.00;97676.28;5026360;28;20841;-65
2020/12/29 07:41:19;;;;;;;21.90;10.20;;;;;;;2.22;100.00;97690.91;5027411;28;20315;-64
2020/12/29 07:43:47;;;;;;;21.47;9.80;;;;;;;2.26;100.00;97692.53;5026102;28;20291;-65
2020/12/29 07:46:13;;;;;;;20.03;10.17;;;;;;;2.26;100.00;97686.53;5026060;28;20287;-65
2020/12/29 07:48:39;;;;;;;22.53;10.10;;;;;;;2.24;100.00;97689.16;5027781;28;20346;-63
2020/12/29 07:51:05;;;;;;;20.87;9.93;;;;;;;2.24;100.00;97693.44;5026067;28;20480;-63
2020/12/29 07:53:31;;;;;;;22.93;10.33;;;;;;;2.22;100.00;97703.78;5025470;28;20279;-63
2020/12/29 07:55:57;;;;;;;21.40;9.47;;;;;;;2.20;100.00;97700.38;5024780;28;20029;-64
2020/12/29 07:58:22;;;;;;;21.67;9.20;;;;;;;2.18;100.00;97715.03;5025431;28;20294;-63
2020/12/29 08:00:48;;;;;;;21.40;9.43;;;;;;;2.17;100.00;97715.88;5025845;28;20035;-64
2020/12/29 08:03:13;;;;;;;19.20;8.67;;;;;;;2.22;100.00;97728.72;5024540;28;20123;-63
2020/12/29 08:05:39;;;;;;;18.63;8.60;;;;;;;2.22;100.00;97729.56;5030548;28;20483;-64
2020/12/29 08:08:07;;;;;;;21.40;9.67;;;;;;;2.27;100.00;97730.34;5026705;28;20029;-64
2020/12/29 08:10:37;;;;;;;18.73;8.97;;;;;;;2.34;100.00;97737.13;5027388;28;20547;-64
2020/12/29 08:13:09;;;;;;;18.27;8.87;;;;;;;2.37;100.00;97743.94;5027043;28;20287;-63
2020/12/29 08:15:36;;;;;;;20.17;9.60;;;;;;;2.38;100.00;97740.50;5023349;28;20292;-65
2020/12/29 08:18:12;;;;;;;19.13;9.27;;;;;;;2.37;100.00;97756.00;5030161;28;20764;-63
2020/12/29 08:20:58;;;;;;;17.63;8.63;;;;;;;2.39;100.00;97744.78;5028114;28;20295;-63
2020/12/29 08:23:24;;;;;;;18.37;8.83;;;;;;;2.42;100.00;97749.88;5027627;28;20308;-64
2020/12/29 08:26:03;;;;;;;19.43;9.23;;;;;;;2.46;100.00;97755.88;5029166;28;20335;-64
2020/12/29 08:28:30;;;;;;;18.00;8.80;;;;;;;2.47;100.00;97762.72;5027909;28;20280;-63
2020/12/29 08:31:03;;;;;;;19.97;8.80;;;;;;;2.47;100.00;97760.16;5027930;28;20412;-64
2020/12/29 08:33:29;;;;;;;22.83;9.70;;;;;;;2.47;100.00;97767.88;5026206;28;20717;-63
2020/12/29 08:35:57;;;;;;;16.47;8.20;;;;;;;2.49;100.00;97763.56;5023606;28;20763;-63
2020/12/29 08:38:31;;;;;;;18.03;9.23;;;;;;;2.45;100.00;97759.31;5027922;28;20292;-63
2020/12/29 08:41:27;;;;;;;18.80;9.13;;;;;;;2.40;100.00;97768.84;5029704;28;20299;-64
2020/12/29 08:43:53;;;;;;;18.27;8.70;;;;;;;2.39;100.00;97772.28;5023398;28;20325;-63
2020/12/29 08:46:23;;;;;;;18.07;8.57;;;;;;;2.43;100.00;97767.09;5030076;28;20706;-64
2020/12/29 08:48:59;;;;;;;19.00;8.93;;;;;;;2.47;100.00;97778.22;5029302;28;20033;-63
2020/12/29 08:51:27;;;;;;;19.80;9.43;;;;;;;2.54;100.00;97784.97;5028420;28;20308;-63
2020/12/29 08:53:53;;;;;;;14.07;7.60;;;;;;;2.63;100.00;97784.84;5026777;28;20276;-64
2020/12/29 08:56:26;;;;;;;12.07;6.90;;;;;;;2.59;100.00;97783.19;5020304;28;20284;-64
2020/12/29 08:58:53;;;;;;;19.27;9.00;;;;;;;2.47;100.00;97781.63;5022071;28;20320;-65
2020/12/29 09:01:33;;;;;;;16.67;7.83;;;;;;;2.40;100.00;97790.31;5027767;28;20295;-64
2020/12/29 09:04:21;;;;;;;14.30;7.60;;;;;;;2.28;100.00;97783.59;5026519;28;20890;-65
2020/12/29 09:06:55;;;;;;;13.00;7.53;;;;;;;2.33;100.00;97792.13;5025307;28;20305;-65
2020/12/29 09:09:20;;;;;;;16.83;8.37;;;;;;;2.30;100.00;97802.50;5026498;28;20280;-65
2020/12/29 09:11:45;;;;;;;14.67;8.33;;;;;;;2.19;100.00;97798.34;5025685;28;20288;-65
2020/12/29 09:14:11;;;;;;;18.57;8.30;;;;;;;2.13;100.00;97798.41;5029144;28;20025;-65
2020/12/29 09:16:36;;;;;;;15.40;7.77;;;;;;;2.08;100.00;97813.94;5031057;28;20033;-64
2020/12/29 09:19:13;;;;;;;16.47;8.33;;;;;;;2.06;100.00;97813.09;5027535;28;20032;-64
2020/12/29 09:21:38;;;;;;;17.90;7.97;;;;;;;2.09;100.00;97817.34;5027566;28;20702;-65
2020/12/29 09:24:04;;;;;;;13.33;7.13;;;;;;;2.19;100.00;97819.81;5028378;28;20284;-65
2020/12/29 09:26:30;;;;;;;27.30;10.77;;;;;;;2.26;100.00;97826.56;5025927;28;20067;-65
2020/12/29 09:28:56;;;;;;;37.27;14.60;;;;;;;2.28;100.00;97830.00;5029753;28;20091;-65
2020/12/29 09:31:26;;;;;;;21.40;10.03;;;;;;;2.32;100.00;97831.69;5028620;28;20492;-64
2020/12/29 09:33:51;;;;;;;13.23;6.63;;;;;;;2.49;100.00;97830.59;5025850;28;20694;-64
2020/12/29 09:36:19;;;;;;;21.67;8.50;;;;;;;2.55;100.00;97840.84;5024866;28;20363;-63
2020/12/29 09:38:50;;;;;;;14.87;6.97;;;;;;;2.62;100.00;97850.19;5023046;28;20041;-64
2020/12/29 09:41:16;;;;;;;16.33;7.63;;;;;;;2.72;100.00;97849.22;5027601;28;20375;-64
2020/12/29 09:43:44;;;;;;;14.27;6.20;;;;;;;2.84;100.00;97851.63;5026760;28;20366;-64
2020/12/29 09:46:09;;;;;;;15.50;7.13;;;;;;;2.97;100.00;97866.94;5029211;28;20392;-64
2020/12/29 09:48:35;;;;;;;15.37;7.60;;;;;;;3.06;100.00;97864.22;5024778;28;20289;-63
2020/12/29 09:51:00;;;;;;;13.63;6.70;;;;;;;3.14;100.00;97859.78;5022751;28;20025;-64
2020/12/29 09:53:26;;;;;;;15.33;8.23;;;;;;;3.23;100.00;97864.81;5025252;28;20043;-64
2020/12/29 09:55:51;;;;;;;15.53;8.03;;;;;;;3.22;100.00;97870.84;5026583;28;20064;-64
2020/12/29 09:58:16;;;;;;;15.87;7.23;;;;;;;3.28;100.00;97873.38;5025581;28;20033;-64
2020/12/29 10:00:42;;;;;;;14.70;7.53;;;;;;;3.36;100.00;97874.06;5023306;28;20111;-64
2020/12/29 10:03:08;;;;;;;15.20;7.37;;;;;;;3.38;100.00;97880.06;5021960;28;20079;-64
2020/12/29 10:05:33;;;;;;;15.47;7.33;;;;;;;3.46;100.00;97885.13;5024901;28;20509;-64
2020/12/29 10:07:59;;;;;;;13.80;6.20;;;;;;;3.49;100.00;97883.34;5022009;28;20049;-64
2020/12/29 10:10:24;;;;;;;9.50;4.90;;;;;;;3.56;100.00;97878.94;5026704;28;20129;-64
2020/12/29 10:12:49;;;;;;;10.77;5.53;;;;;;;3.57;100.00;97884.94;5029257;28;20087;-64
2020/12/29 10:15:15;;;;;;;14.60;6.37;;;;;;;3.64;100.00;97886.56;5021657;28;20814;-64
2020/12/29 10:17:40;;;;;;;12.30;6.70;;;;;;;3.65;100.00;97893.44;5020603;28;20036;-65
2020/12/29 10:20:07;;;;;;;11.97;6.90;;;;;;;3.69;100.00;97902.84;5026292;28;20087;-64
2020/12/29 10:22:32;;;;;;;15.03;6.97;;;;;;;3.84;100.00;97897.41;5029685;28;20094;-64
2020/12/29 10:24:58;;;;;;;16.97;7.27;;;;;;;3.99;100.00;97910.06;5021241;28;20287;-63
2020/12/29 10:27:23;;;;;;;15.23;7.27;;;;;;;4.06;100.00;97916.84;5026975;28;20040;-63
2020/12/29 10:29:49;;;;;;;15.33;7.23;;;;;;;4.00;100.00;97922.13;5020716;28;20036;-64
2020/12/29 10:32:15;;;;;;;13.30;6.40;;;;;;;4.03;100.00;97923.81;5025466;28;20029;-64
2020/12/29 10:34:40;;;;;;;14.27;7.77;;;;;;;4.02;100.00;97930.69;5025985;28;20037;-64
2020/12/29 10:37:10;;;;;;;14.40;7.57;;;;;;;3.97;100.00;97927.31;5027393;28;20045;-64
2020/12/29 10:39:36;;;;;;;14.27;6.83;;;;;;;3.88;100.00;97929.22;5025211;28;20136;-64
2020/12/29 10:42:04;;;;;;;16.80;6.60;;;;;;;3.67;100.00;97927.84;5025193;28;20422;-64
2020/12/29 10:44:29;;;;;;;12.30;6.20;;;;;;;3.58;100.00;97917.66;5017634;28;20052;-64
2020/12/29 10:46:55;;;;;;;13.60;6.43;;;;;;;3.47;100.00;97936.75;5029106;28;20287;-64
2020/12/29 10:49:20;;;;;;;11.70;5.70;;;;;;;3.40;100.00;97929.13;5027592;28;20047;-65
2020/12/29 10:51:48;;;;;;;14.57;6.90;;;;;;;3.42;100.00;97927.38;5027141;28;20032;-63
2020/12/29 10:54:13;;;;;;;11.43;5.73;;;;;;;3.43;100.00;97924.75;5028888;28;20040;-64
2020/12/29 10:56:38;;;;;;;11.70;5.83;;;;;;;3.38;100.00;97921.38;5037723;28;20297;-64
2020/12/29 10:59:04;;;;;;;13.30;6.37;;;;;;;3.33;100.00;97920.59;5028350;28;20067;-65
2020/12/29 11:01:30;;;;;;;13.70;6.00;;;;;;;3.36;100.00;97928.31;5021787;28;20291;-63
2020/12/29 11:03:55;;;;;;;14.90;5.83;;;;;;;3.41;100.00;97926.53;5029052;28;20120;-64
2020/12/29 11:06:22;;;;;;;16.13;6.40;;;;;;;3.47;100.00;97939.31;5025904;28;20056;-64
2020/12/29 11:08:48;;;;;;;13.47;6.30;;;;;;;3.51;100.00;97933.25;5026051;28;20238;-64
2020/12/29 11:11:15;;;;;;;12.73;6.27;;;;;;;3.68;100.00;97934.72;5027405;28;20825;-65
2020/12/29 11:13:41;;;;;;;16.80;6.67;;;;;;;3.88;100.00;97945.59;5030999;28;20729;-63
2020/12/29 11:16:12;;;;;;;15.77;6.60;;;;;;;3.80;100.00;97939.69;5022669;28;20279;-64
2020/12/29 11:18:37;;;;;;;14.43;6.07;;;;;;;3.80;100.00;97945.72;5022073;28;20299;-65
2020/12/29 11:21:02;;;;;;;15.10;6.30;;;;;;;3.75;100.00;97946.66;5030704;28;20341;-65